Time;durP1;ratioP1;P1;durP2;ratioP2;P2;SDS_P1;SDS_P2;PMS_P1;PMS_P2;Temp;Humidity;BMP_temperature;BMP_pressure;BME280_temperature;BME280_humidity;BME280_pressure;Samples;Min_cycle;Max_cycle;Signal;HPM_P1;HPM_P2
2022/03/20 00:04:34;;;;;;;8.38;5.90;;;;;;;1.06;99.42;100138.00;10489897;28;20045;-54
2022/03/20 00:09:39;;;;;;;7.55;6.10;;;;;;;1.02;100.00;100136.38;10481467;28;20494;-58
2022/03/20 00:14:42;;;;;;;9.82;6.25;;;;;;;0.96;100.00;100128.66;10463666;28;20046;-55
2022/03/20 00:19:45;;;;;;;6.57;5.82;;;;;;;0.96;100.00;100126.00;10440509;28;20588;-56
2022/03/20 00:24:50;;;;;;;7.85;6.30;;;;;;;0.99;100.00;100117.94;10433214;28;20280;-57
2022/03/20 00:29:54;;;;;;;6.60;5.97;;;;;;;1.02;100.00;100115.13;10411263;28;20044;-51
2022/03/20 00:34:59;;;;;;;9.65;6.57;;;;;;;1.01;99.89;100108.09;10436383;28;20037;-57
2022/03/20 00:40:06;;;;;;;8.75;6.10;;;;;;;0.95;100.00;100108.34;10438789;28;20707;-52
2022/03/20 00:45:10;;;;;;;7.32;5.93;;;;;;;0.87;100.00;100103.31;10438037;28;20037;-51
2022/03/20 00:50:38;;;;;;;7.75;5.95;;;;;;;0.80;100.00;100102.69;10438637;28;20052;-51
2022/03/20 00:55:43;;;;;;;7.93;6.63;;;;;;;0.72;100.00;100105.63;10429317;28;20045;-53
2022/03/20 01:00:46;;;;;;;7.28;6.32;;;;;;;0.65;100.00;100097.97;10414532;28;20207;-56
2022/03/20 01:05:49;;;;;;;8.23;6.38;;;;;;;0.59;100.00;100086.66;10435830;28;20041;-54
2022/03/20 01:10:54;;;;;;;7.65;6.50;;;;;;;0.55;100.00;100082.38;10431831;28;20056;-52
2022/03/20 01:15:57;;;;;;;7.15;6.10;;;;;;;0.51;100.00;100074.59;10435166;28;20124;-55
2022/03/20 01:21:00;;;;;;;9.15;6.25;;;;;;;0.49;100.00;100061.41;10438105;28;20397;-55
2022/03/20 01:26:05;;;;;;;6.22;5.57;;;;;;;0.50;100.00;100054.28;10428700;28;20119;-53
2022/03/20 01:31:08;;;;;;;8.70;6.25;;;;;;;0.52;100.00;100040.06;10440635;28;20649;-55
2022/03/20 01:36:12;;;;;;;8.55;6.22;;;;;;;0.55;100.00;100036.44;10431402;28;20073;-52
2022/03/20 01:41:16;;;;;;;7.18;5.93;;;;;;;0.50;100.00;100028.66;10434895;28;20123;-54
2022/03/20 01:46:20;;;;;;;8.45;6.28;;;;;;;0.45;100.00;100028.84;10435976;28;20811;-54
2022/03/20 01:52:10;;;;;;;10.52;6.35;;;;;;;0.42;100.00;100025.41;10435822;28;21081;-55
2022/03/20 01:56:50;;;;;;;8.23;6.07;;;;;;;0.35;100.00;100024.78;10433125;28;20493;-60
2022/03/20 02:01:53;;;;;;;7.60;5.88;;;;;;;0.35;100.00;100019.50;10426315;28;20111;-50
2022/03/20 02:06:56;;;;;;;7.13;6.40;;;;;;;0.30;100.00;100011.69;10440084;28;20033;-51
2022/03/20 02:12:01;;;;;;;8.38;6.13;;;;;;;0.26;100.00;100002.13;10437062;28;20593;-52
2022/03/20 02:17:05;;;;;;;7.50;6.15;;;;;;;0.27;100.00;100001.22;10435312;28;20043;-54
2022/03/20 02:22:09;;;;;;;7.80;6.18;;;;;;;0.30;100.00;99993.13;10431793;28;20156;-54
2022/03/20 02:27:15;;;;;;;9.40;6.13;;;;;;;0.32;100.00;99995.75;10431108;28;20045;-51
2022/03/20 02:32:23;;;;;;;9.27;6.00;;;;;;;0.28;100.00;99992.34;10438755;28;20048;-54
2022/03/20 02:37:29;;;;;;;8.30;6.40;;;;;;;0.24;100.00;99988.06;10428013;28;20071;-51
2022/03/20 02:42:32;;;;;;;7.97;6.05;;;;;;;0.26;100.00;99985.34;10439088;28;20129;-52
2022/03/20 02:47:38;;;;;;;7.25;5.90;;;;;;;0.33;100.00;99994.81;10408463;28;20580;-54
2022/03/20 02:52:48;;;;;;;9.07;6.30;;;;;;;0.30;100.00;99985.16;10438085;28;20394;-55
2022/03/20 02:57:52;;;;;;;8.95;5.88;;;;;;;0.29;100.00;99983.44;10428555;28;20049;-52
2022/03/20 03:02:58;;;;;;;7.57;6.03;;;;;;;0.24;100.00;99980.13;10440402;28;20521;-52
2022/03/20 03:13:48;;;;;;;7.97;6.50;;;;;;;0.14;100.00;99984.03;10443519;28;20467;-50
2022/03/20 03:18:51;;;;;;;7.38;6.07;;;;;;;0.06;100.00;99981.66;10447701;28;20120;-51
2022/03/20 03:23:56;;;;;;;8.50;6.45;;;;;;;0.03;100.00;99983.56;10441355;28;20072;-55
2022/03/20 03:28:59;;;;;;;8.75;6.93;;;;;;;-0.01;100.00;99985.47;10428466;28;20047;-58
2022/03/20 03:39:24;;;;;;;8.73;6.05;;;;;;;-0.02;100.00;99973.97;10436911;28;20069;-51
2022/03/20 03:44:28;;;;;;;7.22;6.20;;;;;;;-0.05;100.00;99968.78;10438546;28;20127;-51
2022/03/20 03:49:31;;;;;;;7.10;5.88;;;;;;;-0.09;100.00;99956.59;10437037;28;20057;-53
2022/03/20 03:54:35;;;;;;;9.30;6.05;;;;;;;-0.09;100.00;99967.19;10432738;28;20053;-50
2022/03/20 03:59:38;;;;;;;8.50;5.80;;;;;;;-0.09;100.00;99961.88;10431939;28;20147;-51
2022/03/20 04:04:42;;;;;;;8.23;5.95;;;;;;;-0.09;100.00;99963.66;10431530;28;20160;-53
2022/03/20 04:09:46;;;;;;;7.53;6.10;;;;;;;-0.16;100.00;99970.97;10435693;28;20439;-53
2022/03/20 04:14:49;;;;;;;8.40;6.60;;;;;;;-0.23;100.00;99966.81;10423750;28;20045;-54
2022/03/20 04:19:52;;;;;;;9.60;6.47;;;;;;;-0.28;100.00;99960.78;10422779;28;20113;-54
2022/03/20 04:24:57;;;;;;;8.85;6.30;;;;;;;-0.34;100.00;99965.41;10425928;28;20123;-52
2022/03/20 04:30:01;;;;;;;7.75;6.22;;;;;;;-0.41;100.00;99955.94;10435340;28;20037;-55
2022/03/20 04:35:04;;;;;;;8.70;6.82;;;;;;;-0.44;100.00;99958.72;10431620;28;20048;-52
2022/03/20 04:40:10;;;;;;;9.68;6.65;;;;;;;-0.44;100.00;99949.88;10440807;28;20037;-55
2022/03/20 04:45:14;;;;;;;7.93;6.25;;;;;;;-0.45;100.00;99943.72;10413427;28;20445;-56
2022/03/20 05:01:11;;;;;;;7.93;6.60;;;;;;;-0.34;100.00;99951.28;10396945;28;20133;-49
2022/03/20 05:06:15;;;;;;;9.60;7.00;;;;;;;-0.26;100.00;99949.25;10436016;28;20044;-51
2022/03/20 05:16:39;;;;;;;;;;;;;;;-0.06;100.00;99960.91;10436588;28;20120;-50
2022/03/20 05:21:43;;;;;;;10.07;6.80;;;;;;;-0.09;100.00;99951.28;10413518;28;21194;-51
2022/03/20 05:26:47;;;;;;;10.38;7.50;;;;;;;-0.13;100.00;99952.31;10435997;28;20068;-52
2022/03/20 05:31:50;;;;;;;8.07;7.25;;;;;;;-0.08;100.00;99952.13;10431892;28;20122;-51
2022/03/20 05:36:53;;;;;;;9.07;7.25;;;;;;;-0.02;100.00;99968.69;10431523;28;20068;-57
2022/03/20 05:41:57;;;;;;;8.43;7.20;;;;;;;0.06;100.00;99970.22;10423862;28;20124;-53
2022/03/20 05:47:01;;;;;;;10.13;7.38;;;;;;;0.13;100.00;99971.69;10427376;28;20125;-54
2022/03/20 05:52:06;;;;;;;8.65;7.07;;;;;;;0.19;100.00;99971.44;10425181;28;20120;-51
2022/03/20 06:02:31;;;;;;;8.27;7.38;;;;;;;0.37;100.00;99985.81;10423604;28;20124;-50
2022/03/20 06:07:34;;;;;;;10.15;7.38;;;;;;;0.47;100.00;99986.34;10421866;28;20399;-53
2022/03/20 06:12:38;;;;;;;10.85;7.75;;;;;;;0.58;100.00;99994.75;10429240;28;20124;-50
2022/03/20 06:17:44;;;;;;;8.35;7.13;;;;;;;0.71;100.00;99996.91;10441181;28;20037;-61
2022/03/20 06:22:49;;;;;;;9.45;7.65;;;;;;;0.85;100.00;99997.25;10404529;28;20041;-51
2022/03/20 06:27:56;;;;;;;11.38;7.50;;;;;;;0.99;100.00;100011.78;10432209;28;20049;-50
2022/03/20 06:33:02;;;;;;;9.23;7.65;;;;;;;1.12;100.00;100020.09;10434127;28;20044;-56
2022/03/20 06:38:07;;;;;;;10.80;7.43;;;;;;;1.22;100.00;100022.31;10436146;28;20045;-50
2022/03/20 06:43:13;;;;;;;9.65;7.40;;;;;;;1.41;100.00;100018.91;10432880;28;20091;-56
2022/03/20 06:48:16;;;;;;;10.93;6.85;;;;;;;1.63;100.00;100025.97;10429399;28;20065;-52
2022/03/20 06:53:19;;;;;;;9.38;7.00;;;;;;;1.87;100.00;100031.16;10426677;28;20128;-51
2022/03/20 06:58:26;;;;;;;7.80;6.68;;;;;;;2.11;100.00;100024.78;10432224;28;20124;-52
2022/03/20 07:03:31;;;;;;;10.13;7.00;;;;;;;2.33;100.00;100031.81;10412792;28;20064;-51
2022/03/20 07:08:36;;;;;;;8.90;6.85;;;;;;;2.50;100.00;100033.69;10411446;28;20053;-50
2022/03/20 07:13:50;;;;;;;8.15;6.72;;;;;;;2.68;100.00;100031.13;10423786;28;20091;-54
2022/03/20 07:18:55;;;;;;;7.63;6.35;;;;;;;2.85;97.92;100025.03;10433258;28;20036;-55
2022/03/20 07:24:00;;;;;;;7.43;6.25;;;;;;;3.03;97.59;100032.13;10435623;28;20123;-53
2022/03/20 07:34:30;;;;;;;10.68;6.25;;;;;;;3.39;91.25;100017.94;10431282;28;20045;-54
2022/03/20 07:39:35;;;;;;;8.77;6.07;;;;;;;3.55;90.15;100015.38;10441363;28;20049;-55
2022/03/20 07:44:40;;;;;;;8.43;5.90;;;;;;;3.76;84.01;100017.91;10445090;28;20096;-53
2022/03/20 07:49:43;;;;;;;7.10;5.80;;;;;;;3.91;78.10;100007.38;10437961;28;20121;-54
2022/03/20 07:54:46;;;;;;;8.48;5.50;;;;;;;4.07;76.83;100024.31;10419869;28;20077;-50
2022/03/20 07:59:50;;;;;;;7.05;5.47;;;;;;;4.23;76.98;100020.84;10440401;28;20073;-52
2022/03/20 08:04:55;;;;;;;7.25;5.85;;;;;;;4.39;77.47;100013.75;10438292;28;20147;-52
2022/03/20 08:09:59;;;;;;;7.20;5.70;;;;;;;4.53;73.33;100012.13;10439921;28;20038;-54
2022/03/20 08:15:07;;;;;;;7.05;5.22;;;;;;;4.70;73.44;100001.41;10428630;28;20069;-51
2022/03/20 08:20:13;;;;;;;6.57;5.43;;;;;;;4.91;71.72;100015.34;10391578;28;20613;-53
2022/03/20 08:25:18;;;;;;;6.75;5.22;;;;;;;5.15;67.30;100012.25;10437554;28;20049;-52
2022/03/20 08:30:30;;;;;;;7.35;5.28;;;;;;;5.25;66.97;100018.78;10436781;28;20042;-50
2022/03/20 08:35:35;;;;;;;5.90;5.10;;;;;;;5.43;67.97;100010.69;10422235;28;20052;-50
2022/03/20 08:40:42;;;;;;;6.10;4.80;;;;;;;5.59;68.69;100012.44;10436043;28;20049;-50
2022/03/20 08:45:50;;;;;;;6.18;5.20;;;;;;;5.76;67.12;100006.97;10430945;28;20064;-54
2022/03/20 08:50:55;;;;;;;6.75;4.93;;;;;;;5.92;64.71;100006.06;10417385;28;20053;-50
2022/03/20 08:56:06;;;;;;;5.57;4.75;;;;;;;6.10;64.75;100004.13;10436160;28;20049;-52
2022/03/20 09:01:14;;;;;;;6.13;4.55;;;;;;;6.27;64.17;99992.38;10432274;28;20045;-52
2022/03/20 09:06:21;;;;;;;5.43;4.93;;;;;;;6.42;63.80;99991.41;10454421;28;20040;-53
2022/03/20 09:11:34;;;;;;;8.10;4.57;;;;;;;6.70;64.66;99983.47;10409953;28;20568;-53
2022/03/20 09:22:03;;;;;;;4.88;3.85;;;;;;;7.18;60.22;99986.56;10436385;28;20068;-53
2022/03/20 09:27:13;;;;;;;4.20;3.80;;;;;;;7.40;58.54;99980.66;10415617;28;20132;-55
2022/03/20 09:32:20;;;;;;;4.85;3.85;;;;;;;7.59;54.63;99983.94;10423788;28;20152;-53
2022/03/20 09:37:28;;;;;;;4.22;3.83;;;;;;;7.72;57.98;99980.31;10434655;28;20140;-51
2022/03/20 09:42:51;;;;;;;4.90;4.13;;;;;;;7.83;55.99;99976.03;10439963;28;20062;-53
2022/03/20 09:48:02;;;;;;;4.72;3.97;;;;;;;8.04;57.40;99978.22;10435951;28;20048;-52
2022/03/20 09:53:07;;;;;;;6.13;4.10;;;;;;;8.28;57.37;99972.94;10415475;28;20405;-52
2022/03/20 09:58:13;;;;;;;5.82;3.90;;;;;;;8.44;56.02;99978.94;10428765;28;20059;-49
2022/03/20 10:03:23;;;;;;;4.60;3.50;;;;;;;8.68;53.75;99972.81;10437894;28;20069;-52
2022/03/20 10:08:29;;;;;;;4.00;3.60;;;;;;;8.88;54.12;99976.72;10423322;28;20522;-53
2022/03/20 10:13:39;;;;;;;4.53;3.40;;;;;;;9.05;54.32;99974.63;10410538;28;20045;-52
2022/03/20 10:18:56;;;;;;;3.63;3.22;;;;;;;9.35;53.09;99966.13;10426352;28;20305;-50
2022/03/20 10:24:17;;;;;;;4.43;3.38;;;;;;;9.62;50.71;99961.44;10429142;28;20045;-49
2022/03/20 10:29:22;;;;;;;3.00;2.70;;;;;;;9.80;47.83;99959.16;10432347;28;20097;-48
2022/03/20 10:34:29;;;;;;;3.38;2.80;;;;;;;9.94;49.29;99955.41;10433855;28;20041;-56
2022/03/20 10:39:32;;;;;;;3.47;2.80;;;;;;;10.13;43.87;99958.38;10431539;28;20072;-49
2022/03/20 10:44:38;;;;;;;4.72;2.80;;;;;;;10.26;43.89;99949.34;10431739;28;20037;-47
2022/03/20 10:49:49;;;;;;;3.72;2.80;;;;;;;10.39;44.84;99955.50;10433164;28;20072;-52
2022/03/20 10:54:53;;;;;;;;;;;;;;;10.46;43.75;99958.56;10425542;28;20049;-48
2022/03/20 10:59:59;;;;;;;2.80;2.60;;;;;;;10.71;46.17;99957.44;10426258;28;19963;-51
2022/03/20 11:05:08;;;;;;;2.83;2.47;;;;;;;10.81;44.76;99960.25;10435560;28;20099;-53
2022/03/20 11:10:14;;;;;;;3.33;2.90;;;;;;;10.95;43.50;99969.91;10443987;28;20120;-51
2022/03/20 11:15:18;;;;;;;3.47;2.88;;;;;;;10.99;44.19;99962.41;10442945;28;20068;-51
2022/03/20 11:20:24;;;;;;;3.35;2.47;;;;;;;11.11;42.50;99958.72;10426239;28;20069;-49
2022/03/20 11:25:31;;;;;;;3.58;2.80;;;;;;;11.17;42.81;99941.16;10444467;28;20071;-52
2022/03/20 11:30:35;;;;;;;3.10;2.58;;;;;;;11.22;43.16;99936.25;10436587;28;20114;-47
2022/03/20 11:35:41;;;;;;;5.20;2.75;;;;;;;11.28;42.72;99951.06;10451048;28;20099;-51
2022/03/20 11:41:05;;;;;;;3.10;2.80;;;;;;;11.33;40.56;99941.59;10438668;28;20045;-55
2022/03/20 11:46:28;;;;;;;4.60;2.47;;;;;;;11.41;39.37;99931.00;10453084;28;20072;-49
2022/03/20 11:52:00;;;;;;;3.00;2.70;;;;;;;11.51;40.12;99931.09;10436566;28;20049;-50
2022/03/20 11:57:40;;;;;;;2.83;2.60;;;;;;;11.62;39.83;99932.03;10442016;28;20052;-51
2022/03/20 12:03:22;;;;;;;2.92;2.42;;;;;;;11.71;39.21;99921.28;10447576;28;20056;-51
2022/03/20 12:08:49;;;;;;;3.05;2.45;;;;;;;11.80;38.00;99921.50;10444255;28;20065;-53
2022/03/20 12:14:14;;;;;;;4.10;2.75;;;;;;;11.80;37.38;99910.69;10402081;28;20064;-60
2022/03/20 12:19:20;;;;;;;2.97;2.67;;;;;;;11.88;38.31;99917.13;10393245;28;20065;-51
2022/03/20 12:24:53;;;;;;;2.97;2.40;;;;;;;11.98;36.64;99922.63;10395503;28;20049;-48
2022/03/20 12:29:58;;;;;;;2.92;2.50;;;;;;;12.23;41.00;99914.22;10394164;28;20126;-49
2022/03/20 12:35:22;;;;;;;3.22;2.80;;;;;;;12.41;39.32;99911.72;10361768;28;20149;-53
2022/03/20 12:40:31;;;;;;;3.65;2.53;;;;;;;12.56;39.24;99907.66;10385225;28;20573;-48
2022/03/20 12:45:55;;;;;;;4.07;2.70;;;;;;;12.78;39.59;99903.00;10363235;28;20056;-49
2022/03/20 12:51:02;;;;;;;2.60;2.40;;;;;;;12.79;39.34;99900.19;10365025;28;20408;-49
2022/03/20 12:56:12;;;;;;;4.80;2.72;;;;;;;13.01;38.78;99886.53;10363857;28;20092;-51
2022/03/20 13:01:18;;;;;;;3.47;2.30;;;;;;;13.20;39.14;99886.56;10355146;28;20051;-48
2022/03/20 13:06:28;;;;;;;5.50;2.70;;;;;;;13.30;35.84;99881.13;10360536;28;20045;-48
2022/03/20 13:11:56;;;;;;;3.67;2.60;;;;;;;13.30;36.70;99880.28;10365456;28;20084;-46
2022/03/20 13:17:02;;;;;;;3.20;2.25;;;;;;;13.56;38.38;99884.16;10366766;28;20052;-48
2022/03/20 13:22:06;;;;;;;2.40;2.03;;;;;;;13.81;38.68;99884.53;10359812;28;20045;-50
2022/03/20 13:27:12;;;;;;;2.30;2.10;;;;;;;14.02;36.88;99875.34;10350531;28;20133;-48
2022/03/20 13:32:22;;;;;;;4.20;2.28;;;;;;;14.30;36.20;99872.63;10361042;28;20046;-50
2022/03/20 13:37:28;;;;;;;4.53;2.40;;;;;;;14.53;35.55;99872.25;10359230;28;20422;-51
2022/03/20 13:42:33;;;;;;;2.38;2.17;;;;;;;14.66;37.40;99867.31;10360572;28;20061;-48
2022/03/20 13:47:37;;;;;;;3.08;2.10;;;;;;;14.80;36.42;99863.28;10365014;28;20042;-47
2022/03/20 13:52:42;;;;;;;2.63;2.20;;;;;;;14.95;37.23;99858.16;10361876;28;20434;-52
2022/03/20 13:57:53;;;;;;;2.20;2.00;;;;;;;15.25;34.94;99850.63;10365528;28;20672;-49
2022/03/20 14:02:57;;;;;;;2.30;2.10;;;;;;;15.48;35.29;99852.84;10364939;28;20034;-58
2022/03/20 14:08:12;;;;;;;3.17;2.17;;;;;;;15.64;33.77;99844.81;10360831;28;20053;-49
2022/03/20 14:13:20;;;;;;;2.55;1.98;;;;;;;15.96;34.71;99843.34;10362766;28;20115;-48
2022/03/20 14:18:24;;;;;;;2.53;2.03;;;;;;;16.11;33.40;99837.31;10365296;28;20112;-48
2022/03/20 14:23:28;;;;;;;2.00;1.90;;;;;;;16.48;34.33;99847.00;10356616;28;20113;-51
2022/03/20 14:28:35;;;;;;;2.00;1.80;;;;;;;16.72;33.82;99837.19;10362035;28;20050;-53
2022/03/20 14:39:28;;;;;;;2.28;1.67;;;;;;;17.23;33.97;99842.56;10359097;28;20501;-48
2022/03/20 14:44:34;;;;;;;3.50;1.70;;;;;;;17.41;32.02;99837.78;10361178;28;20414;-49
2022/03/20 14:49:38;;;;;;;1.85;1.70;;;;;;;17.58;32.87;99828.78;10356465;28;20037;-49
2022/03/20 14:54:41;;;;;;;2.40;1.80;;;;;;;17.67;31.30;99820.41;10355107;28;20080;-48
2022/03/20 14:59:47;;;;;;;2.20;1.50;;;;;;;17.66;29.96;99832.31;10355858;28;20038;-48
2022/03/20 15:04:50;;;;;;;2.05;1.50;;;;;;;16.79;28.57;99830.94;10359800;28;20045;-47
2022/03/20 15:15:16;;;;;;;2.00;1.50;;;;;;;16.59;30.26;99833.09;10431305;28;20057;-49
2022/03/20 15:20:19;;;;;;;2.17;1.70;;;;;;;16.29;28.35;99831.78;10434618;28;20440;-51
2022/03/20 15:25:23;;;;;;;1.75;1.60;;;;;;;16.39;30.19;99831.66;10397180;28;20571;-50
2022/03/20 15:30:31;;;;;;;2.58;1.50;;;;;;;16.75;29.85;99828.72;10402915;28;20045;-50
2022/03/20 15:35:35;;;;;;;2.17;1.60;;;;;;;16.31;29.11;99836.03;10411229;28;20132;-52
2022/03/20 15:40:39;;;;;;;2.05;1.52;;;;;;;16.32;29.08;99845.91;10417693;28;20481;-52
2022/03/20 15:45:49;;;;;;;2.22;1.70;;;;;;;16.01;29.32;99851.03;10430216;28;20052;-57
2022/03/20 15:50:52;;;;;;;1.80;1.65;;;;;;;16.10;29.88;99843.75;10442399;28;20064;-57
2022/03/20 15:55:57;;;;;;;3.83;1.55;;;;;;;15.94;28.41;99845.38;10403876;28;20057;-54
2022/03/20 16:01:01;;;;;;;1.65;1.55;;;;;;;15.86;30.31;99848.06;10396993;28;20053;-52
2022/03/20 16:06:05;;;;;;;1.88;1.67;;;;;;;15.85;29.90;99846.34;10400721;28;20092;-55
2022/03/20 16:11:09;;;;;;;1.60;1.45;;;;;;;15.93;30.27;99840.97;10414592;28;20631;-53
2022/03/20 16:16:14;;;;;;;1.90;1.50;;;;;;;15.67;30.10;99849.94;10405541;28;20307;-51
2022/03/20 16:21:18;;;;;;;1.80;1.70;;;;;;;15.41;30.40;99855.34;10429219;28;20227;-52
2022/03/20 16:31:43;;;;;;;2.53;1.90;;;;;;;15.23;31.71;99855.34;10442003;28;20067;-52
2022/03/20 16:36:47;;;;;;;4.03;1.60;;;;;;;15.19;32.34;99857.53;10425483;28;20041;-59
2022/03/20 16:41:50;;;;;;;2.80;1.65;;;;;;;15.07;32.17;99854.22;10411096;28;20188;-51
2022/03/20 16:46:54;;;;;;;3.25;1.77;;;;;;;15.01;31.62;99860.25;10430845;28;20041;-54
2022/03/20 16:51:58;;;;;;;1.88;1.67;;;;;;;14.92;32.72;99862.06;10427728;28;20038;-51
2022/03/20 16:57:01;;;;;;;2.40;1.63;;;;;;;14.83;33.47;99867.53;10412069;28;20079;-56
2022/03/20 17:02:06;;;;;;;3.65;1.85;;;;;;;14.57;33.33;99868.22;10431360;28;20095;-53
2022/03/20 17:07:09;;;;;;;2.30;1.80;;;;;;;14.29;33.44;99870.94;10410148;28;20064;-55
2022/03/20 17:12:12;;;;;;;2.30;2.10;;;;;;;14.04;34.07;99878.75;10408368;28;20370;-51
2022/03/20 17:17:16;;;;;;;1.90;1.80;;;;;;;13.57;33.74;99874.16;10423568;28;20568;-50
2022/03/20 17:22:20;;;;;;;2.72;1.80;;;;;;;13.22;35.43;99887.28;10422597;28;20045;-48
2022/03/20 17:27:24;;;;;;;3.17;2.00;;;;;;;12.63;36.48;99883.63;10420854;28;21311;-50
2022/03/20 17:32:29;;;;;;;2.20;1.98;;;;;;;12.12;37.54;99890.84;10412035;28;20061;-51
2022/03/20 17:37:33;;;;;;;2.45;2.10;;;;;;;11.60;37.92;99890.81;10424134;28;20128;-50
2022/03/20 17:42:37;;;;;;;5.35;1.92;;;;;;;11.08;39.11;99900.50;10426156;28;20121;-56
2022/03/20 17:47:41;;;;;;;3.47;2.03;;;;;;;10.86;38.91;99898.72;10416892;28;20053;-50
2022/03/20 17:52:44;;;;;;;3.47;2.05;;;;;;;10.54;38.89;99909.41;10441465;28;20477;-50
2022/03/20 17:57:48;;;;;;;1.95;1.85;;;;;;;10.25;39.64;99920.69;10396031;28;20131;-49
2022/03/20 18:08:13;;;;;;;4.28;2.20;;;;;;;9.59;40.96;99918.59;10429631;28;20601;-54
2022/03/20 18:13:16;;;;;;;3.28;2.05;;;;;;;9.37;41.39;99921.13;10404184;28;20073;-49
2022/03/20 18:18:21;;;;;;;2.20;2.00;;;;;;;9.15;41.33;99911.13;10400686;28;20177;-50
2022/03/20 18:23:25;;;;;;;3.70;2.40;;;;;;;9.03;41.29;99928.19;10422028;28;20514;-50
2022/03/20 18:28:28;;;;;;;2.42;2.13;;;;;;;8.86;40.63;99937.50;10422235;28;20076;-52
2022/03/20 18:33:32;;;;;;;2.70;2.22;;;;;;;8.72;41.28;99943.88;10424191;28;20076;-53
2022/03/20 18:38:38;;;;;;;2.67;2.47;;;;;;;8.53;41.31;99937.16;10421857;28;20087;-49
2022/03/20 18:43:41;;;;;;;3.20;2.20;;;;;;;8.43;42.40;99936.06;10409822;28;20087;-55
2022/03/20 18:48:46;;;;;;;2.60;2.30;;;;;;;8.32;42.19;99951.13;10421077;28;20401;-53
2022/03/20 18:53:49;;;;;;;3.33;2.30;;;;;;;8.20;42.87;99940.41;10423714;28;20049;-57
2022/03/20 18:58:52;;;;;;;4.28;2.50;;;;;;;8.05;42.67;99951.25;10422692;28;20077;-58
2022/03/20 19:03:57;;;;;;;2.72;2.53;;;;;;;7.93;43.34;99954.78;10431514;28;20090;-60
2022/03/20 19:09:01;;;;;;;2.42;2.20;;;;;;;7.84;43.05;99956.28;10429909;28;20049;-55
2022/03/20 19:14:04;;;;;;;2.83;2.53;;;;;;;7.72;43.86;99958.84;10416366;28;20536;-56
2022/03/20 19:19:09;;;;;;;4.88;2.85;;;;;;;7.60;43.85;99962.34;10431493;28;20045;-58
2022/03/20 19:24:13;;;;;;;3.05;2.47;;;;;;;7.45;44.50;99966.94;10433355;28;20133;-57
2022/03/20 19:29:16;;;;;;;4.57;2.30;;;;;;;7.33;44.85;99967.75;10420316;28;20068;-51
2022/03/20 19:39:57;;;;;;;3.13;2.60;;;;;;;7.01;45.11;99962.72;10427395;28;20052;-57
2022/03/20 19:45:04;;;;;;;2.88;2.50;;;;;;;6.85;46.25;99968.22;10423749;28;20506;-51
2022/03/20 19:50:12;;;;;;;3.03;2.72;;;;;;;6.69;46.66;99971.88;10413427;28;20050;-51
2022/03/20 19:55:16;;;;;;;2.75;2.55;;;;;;;6.53;46.67;99971.13;10410377;28;20130;-52
2022/03/20 20:00:20;;;;;;;7.53;2.65;;;;;;;6.35;47.03;99971.31;10434180;28;20049;-57
2022/03/20 20:05:25;;;;;;;3.53;2.80;;;;;;;6.19;47.89;99971.44;10435285;28;20045;-53
2022/03/20 20:10:28;;;;;;;3.28;2.92;;;;;;;6.06;48.12;99971.31;10431321;28;20045;-56
2022/03/20 20:15:34;;;;;;;4.32;2.65;;;;;;;5.95;48.18;99971.06;10414887;28;20045;-55
2022/03/20 20:20:39;;;;;;;4.43;2.90;;;;;;;5.90;48.13;99967.84;10426056;28;20047;-56
2022/03/20 20:25:44;;;;;;;5.68;2.92;;;;;;;5.84;48.00;99961.88;10425222;28;20384;-53
2022/03/20 20:30:48;;;;;;;4.78;2.97;;;;;;;5.79;47.72;99969.34;10431656;28;20107;-54
2022/03/20 20:35:52;;;;;;;5.57;2.90;;;;;;;5.73;48.22;99969.69;10428735;28;20141;-55
2022/03/20 20:40:56;;;;;;;3.55;2.78;;;;;;;5.68;48.28;99961.09;10426823;28;20060;-54
2022/03/20 20:45:59;;;;;;;3.55;2.80;;;;;;;5.62;48.15;99964.13;10427973;28;20143;-50
2022/03/20 20:51:04;;;;;;;3.75;3.17;;;;;;;5.55;48.82;99967.19;10427675;28;20037;-55
2022/03/20 20:56:07;;;;;;;4.03;2.83;;;;;;;5.49;48.48;99967.53;10442856;28;20131;-52
2022/03/20 21:01:10;;;;;;;4.65;3.03;;;;;;;5.47;48.14;99957.88;10428112;28;20073;-51
2022/03/20 21:06:15;;;;;;;3.15;2.75;;;;;;;5.44;48.66;99966.97;10427840;28;20060;-52
2022/03/20 21:11:19;;;;;;;5.18;2.90;;;;;;;5.42;48.87;99973.31;10435583;23;20067;-78
2022/03/20 21:16:23;;;;;;;3.92;3.00;;;;;;;5.38;49.16;99968.19;10429740;28;20051;-78
2022/03/20 21:21:28;;;;;;;3.88;3.30;;;;;;;5.29;49.33;99981.22;10424394;28;20056;-79
2022/03/20 21:26:32;;;;;;;3.13;2.83;;;;;;;5.19;49.50;99980.88;10429890;28;20072;-78
2022/03/20 21:31:35;;;;;;;5.32;3.30;;;;;;;5.21;49.66;99974.50;10441852;28;20110;-79
2022/03/20 21:36:39;;;;;;;4.55;3.15;;;;;;;5.11;49.70;99976.00;10452211;28;20041;-78
2022/03/20 21:41:42;;;;;;;3.35;3.05;;;;;;;4.98;50.40;99978.47;10446503;28;20097;-78
2022/03/20 21:46:45;;;;;;;4.00;3.45;;;;;;;4.92;50.26;99974.34;10440347;28;20464;-78
2022/03/20 21:51:50;;;;;;;4.40;3.40;;;;;;;4.81;50.54;99976.75;10436827;28;20033;-78
2022/03/20 21:56:53;;;;;;;4.32;3.20;;;;;;;4.78;50.46;99974.25;10422470;28;20033;-78
2022/03/20 22:01:56;;;;;;;5.60;3.35;;;;;;;4.75;50.37;99980.66;10434028;28;20045;-78
2022/03/20 22:07:01;;;;;;;3.70;3.05;;;;;;;4.71;50.62;99983.56;10431341;28;20068;-81
2022/03/20 22:12:05;;;;;;;3.50;3.20;;;;;;;4.68;50.55;99986.41;10438326;28;20049;-78
2022/03/20 22:17:08;;;;;;;3.70;3.25;;;;;;;4.68;51.11;99978.41;10440624;28;20077;-78
2022/03/20 22:22:12;;;;;;;3.58;3.20;;;;;;;4.61;51.50;99986.75;10444410;28;20164;-80
2022/03/20 22:27:15;;;;;;;4.00;3.25;;;;;;;4.58;51.67;99986.91;10434222;28;20102;-79
2022/03/20 22:32:18;;;;;;;3.58;3.15;;;;;;;4.55;52.08;99986.22;10434772;28;20114;-80
2022/03/20 22:42:53;;;;;;;4.00;3.42;;;;;;;4.46;52.07;99987.59;10396100;28;20059;-80
2022/03/20 22:47:57;;;;;;;3.90;3.50;;;;;;;4.47;52.11;99986.66;10422671;28;20109;-79
2022/03/20 22:53:02;;;;;;;4.00;3.60;;;;;;;4.49;52.39;99992.75;10434946;28;20045;-78
2022/03/20 22:58:04;;;;;;;4.80;3.60;;;;;;;4.44;52.41;99985.00;10428411;28;20129;-80
2022/03/20 23:03:08;;;;;;;3.97;3.55;;;;;;;4.40;52.68;99982.59;10438164;28;20490;-79
2022/03/20 23:08:12;;;;;;;4.20;3.42;;;;;;;4.40;52.95;99987.94;10424960;28;20046;-80
2022/03/20 23:13:15;;;;;;;4.47;3.58;;;;;;;4.34;52.84;99981.13;10430197;28;20049;-80
2022/03/20 23:18:20;;;;;;;5.93;3.55;;;;;;;4.31;52.85;99983.94;10431481;28;20502;-80
2022/03/20 23:23:26;;;;;;;3.83;3.42;;;;;;;4.28;53.40;99989.44;10427064;28;20045;-79
2022/03/20 23:28:29;;;;;;;4.50;3.75;;;;;;;4.24;53.61;99988.75;10432562;28;20056;-81
2022/03/20 23:33:34;;;;;;;4.75;3.60;;;;;;;4.22;53.71;99990.63;10444075;28;20553;-81
2022/03/20 23:38:38;;;;;;;5.15;3.50;;;;;;;4.16;53.49;99993.66;10451094;28;20073;-81
2022/03/20 23:43:41;;;;;;;4.28;3.50;;;;;;;4.13;53.92;99996.47;10438923;28;20080;-81
2022/03/20 23:48:44;;;;;;;3.67;3.33;;;;;;;4.10;54.42;99994.81;10458373;28;20061;-80
2022/03/20 23:53:49;;;;;;;4.70;3.40;;;;;;;4.04;53.79;99992.47;10446548;28;20037;-79
2022/03/20 23:58:52;;;;;;;4.10;3.40;;;;;;;4.04;53.88;99986.28;10439610;28;20051;-79
